sensor_id;sensor_type;location;lat;lon;timestamp;P1;durP1;ratioP1;P2;durP2;ratioP2
14191;SDS011;7177;48.572;7.838;2023-12-07T00:00:31;22.70;;;17.05;;
14191;SDS011;7177;48.572;7.838;2023-12-07T00:02:57;20.33;;;15.53;;
14191;SDS011;7177;48.572;7.838;2023-12-07T00:05:24;22.15;;;17.40;;
14191;SDS011;7177;48.572;7.838;2023-12-07T00:07:50;22.37;;;17.33;;
14191;SDS011;7177;48.572;7.838;2023-12-07T00:10:15;25.03;;;18.13;;
14191;SDS011;7177;48.572;7.838;2023-12-07T00:12:41;23.90;;;18.10;;
14191;SDS011;7177;48.572;7.838;2023-12-07T00:15:07;25.10;;;19.10;;
14191;SDS011;7177;48.572;7.838;2023-12-07T00:17:32;24.95;;;18.83;;
14191;SDS011;7177;48.572;7.838;2023-12-07T00:19:58;22.10;;;17.03;;
14191;SDS011;7177;48.572;7.838;2023-12-07T00:22:23;24.20;;;18.50;;
14191;SDS011;7177;48.572;7.838;2023-12-07T00:24:50;20.15;;;16.23;;
14191;SDS011;7177;48.572;7.838;2023-12-07T00:27:16;24.13;;;16.83;;
14191;SDS011;7177;48.572;7.838;2023-12-07T00:29:41;24.20;;;18.33;;
14191;SDS011;7177;48.572;7.838;2023-12-07T00:32:07;20.97;;;16.43;;
14191;SDS011;7177;48.572;7.838;2023-12-07T00:34:32;21.83;;;17.67;;
14191;SDS011;7177;48.572;7.838;2023-12-07T00:36:58;23.70;;;18.80;;
14191;SDS011;7177;48.572;7.838;2023-12-07T00:39:23;23.70;;;18.37;;
14191;SDS011;7177;48.572;7.838;2023-12-07T00:41:49;22.47;;;18.10;;
14191;SDS011;7177;48.572;7.838;2023-12-07T00:44:14;26.10;;;19.10;;
14191;SDS011;7177;48.572;7.838;2023-12-07T00:46:40;22.00;;;18.17;;
14191;SDS011;7177;48.572;7.838;2023-12-07T00:49:05;23.63;;;19.47;;
14191;SDS011;7177;48.572;7.838;2023-12-07T00:51:31;23.93;;;18.60;;
14191;SDS011;7177;48.572;7.838;2023-12-07T00:53:57;21.73;;;17.20;;
14191;SDS011;7177;48.572;7.838;2023-12-07T00:56:23;21.08;;;16.33;;
14191;SDS011;7177;48.572;7.838;2023-12-07T00:58:50;22.17;;;17.33;;
14191;SDS011;7177;48.572;7.838;2023-12-07T01:01:15;26.77;;;18.20;;
14191;SDS011;7177;48.572;7.838;2023-12-07T01:03:41;23.80;;;18.63;;
14191;SDS011;7177;48.572;7.838;2023-12-07T01:06:07;22.27;;;18.00;;
14191;SDS011;7177;48.572;7.838;2023-12-07T01:08:33;23.25;;;18.27;;
14191;SDS011;7177;48.572;7.838;2023-12-07T01:10:58;27.03;;;19.00;;
14191;SDS011;7177;48.572;7.838;2023-12-07T01:13:24;22.23;;;17.43;;
14191;SDS011;7177;48.572;7.838;2023-12-07T01:15:50;22.23;;;17.77;;
14191;SDS011;7177;48.572;7.838;2023-12-07T01:18:15;22.83;;;17.77;;
14191;SDS011;7177;48.572;7.838;2023-12-07T01:20:41;21.55;;;17.50;;
14191;SDS011;7177;48.572;7.838;2023-12-07T01:23:07;21.57;;;16.77;;
14191;SDS011;7177;48.572;7.838;2023-12-07T01:25:35;21.35;;;16.38;;
14191;SDS011;7177;48.572;7.838;2023-12-07T01:28:01;20.50;;;16.37;;
14191;SDS011;7177;48.572;7.838;2023-12-07T01:30:26;24.47;;;19.30;;
14191;SDS011;7177;48.572;7.838;2023-12-07T01:32:52;24.63;;;18.20;;
14191;SDS011;7177;48.572;7.838;2023-12-07T01:35:17;24.23;;;18.37;;
14191;SDS011;7177;48.572;7.838;2023-12-07T01:37:43;20.03;;;15.63;;
14191;SDS011;7177;48.572;7.838;2023-12-07T01:40:09;25.77;;;18.37;;
14191;SDS011;7177;48.572;7.838;2023-12-07T01:42:35;24.38;;;17.42;;
14191;SDS011;7177;48.572;7.838;2023-12-07T01:45:02;23.58;;;16.73;;
14191;SDS011;7177;48.572;7.838;2023-12-07T01:47:27;22.40;;;16.53;;
14191;SDS011;7177;48.572;7.838;2023-12-07T01:49:53;18.57;;;14.43;;
14191;SDS011;7177;48.572;7.838;2023-12-07T01:52:20;21.90;;;15.18;;
14191;SDS011;7177;48.572;7.838;2023-12-07T01:54:47;21.65;;;16.15;;
14191;SDS011;7177;48.572;7.838;2023-12-07T01:57:12;20.20;;;16.37;;
14191;SDS011;7177;48.572;7.838;2023-12-07T01:59:39;22.05;;;16.02;;
14191;SDS011;7177;48.572;7.838;2023-12-07T02:02:04;20.67;;;16.47;;
14191;SDS011;7177;48.572;7.838;2023-12-07T02:04:30;20.23;;;16.23;;
14191;SDS011;7177;48.572;7.838;2023-12-07T02:06:57;19.80;;;15.68;;
14191;SDS011;7177;48.572;7.838;2023-12-07T02:09:24;20.30;;;16.05;;
14191;SDS011;7177;48.572;7.838;2023-12-07T02:11:50;22.53;;;16.53;;
14191;SDS011;7177;48.572;7.838;2023-12-07T02:14:15;20.17;;;15.17;;
14191;SDS011;7177;48.572;7.838;2023-12-07T02:16:43;23.20;;;17.52;;
14191;SDS011;7177;48.572;7.838;2023-12-07T02:22:26;23.60;;;17.00;;
14191;SDS011;7177;48.572;7.838;2023-12-07T02:27:42;21.70;;;16.45;;
14191;SDS011;7177;48.572;7.838;2023-12-07T02:30:10;20.50;;;15.88;;
14191;SDS011;7177;48.572;7.838;2023-12-07T02:32:37;19.20;;;14.73;;
14191;SDS011;7177;48.572;7.838;2023-12-07T02:35:04;20.25;;;14.88;;
14191;SDS011;7177;48.572;7.838;2023-12-07T02:37:33;18.42;;;14.70;;
14191;SDS011;7177;48.572;7.838;2023-12-07T02:40:03;20.02;;;14.52;;
14191;SDS011;7177;48.572;7.838;2023-12-07T02:42:30;21.08;;;15.60;;
14191;SDS011;7177;48.572;7.838;2023-12-07T02:44:57;19.15;;;15.63;;
14191;SDS011;7177;48.572;7.838;2023-12-07T02:47:23;22.67;;;17.37;;
14191;SDS011;7177;48.572;7.838;2023-12-07T02:49:49;23.40;;;18.27;;
14191;SDS011;7177;48.572;7.838;2023-12-07T02:52:14;61.00;;;17.73;;
14191;SDS011;7177;48.572;7.838;2023-12-07T02:54:40;20.53;;;15.67;;
14191;SDS011;7177;48.572;7.838;2023-12-07T02:57:05;22.83;;;17.17;;
14191;SDS011;7177;48.572;7.838;2023-12-07T02:59:31;23.00;;;16.80;;
14191;SDS011;7177;48.572;7.838;2023-12-07T03:01:56;21.73;;;17.30;;
14191;SDS011;7177;48.572;7.838;2023-12-07T03:04:22;22.30;;;17.00;;
14191;SDS011;7177;48.572;7.838;2023-12-07T03:06:47;26.13;;;18.07;;
14191;SDS011;7177;48.572;7.838;2023-12-07T03:09:13;21.87;;;16.67;;
14191;SDS011;7177;48.572;7.838;2023-12-07T03:11:38;23.47;;;16.47;;
14191;SDS011;7177;48.572;7.838;2023-12-07T03:14:04;23.03;;;17.60;;
14191;SDS011;7177;48.572;7.838;2023-12-07T03:16:30;23.90;;;17.70;;
14191;SDS011;7177;48.572;7.838;2023-12-07T03:18:55;23.67;;;17.93;;
14191;SDS011;7177;48.572;7.838;2023-12-07T03:21:21;24.43;;;17.97;;
14191;SDS011;7177;48.572;7.838;2023-12-07T03:23:46;28.53;;;19.53;;
14191;SDS011;7177;48.572;7.838;2023-12-07T03:26:12;21.73;;;17.17;;
14191;SDS011;7177;48.572;7.838;2023-12-07T03:28:38;23.77;;;17.87;;
14191;SDS011;7177;48.572;7.838;2023-12-07T03:31:03;23.63;;;17.20;;
14191;SDS011;7177;48.572;7.838;2023-12-07T03:33:29;25.47;;;18.23;;
14191;SDS011;7177;48.572;7.838;2023-12-07T03:35:54;24.03;;;17.47;;
14191;SDS011;7177;48.572;7.838;2023-12-07T03:38:19;18.40;;;15.00;;
14191;SDS011;7177;48.572;7.838;2023-12-07T03:40:45;19.77;;;15.20;;
14191;SDS011;7177;48.572;7.838;2023-12-07T03:43:13;22.92;;;17.48;;
14191;SDS011;7177;48.572;7.838;2023-12-07T03:45:38;22.00;;;16.67;;
14191;SDS011;7177;48.572;7.838;2023-12-07T03:48:04;19.13;;;15.17;;
14191;SDS011;7177;48.572;7.838;2023-12-07T03:50:29;22.77;;;16.17;;
14191;SDS011;7177;48.572;7.838;2023-12-07T03:52:55;20.43;;;15.33;;
14191;SDS011;7177;48.572;7.838;2023-12-07T03:55:20;20.63;;;15.67;;
14191;SDS011;7177;48.572;7.838;2023-12-07T03:57:46;19.63;;;16.33;;
14191;SDS011;7177;48.572;7.838;2023-12-07T04:00:12;23.03;;;15.37;;
14191;SDS011;7177;48.572;7.838;2023-12-07T04:02:38;20.30;;;15.38;;
14191;SDS011;7177;48.572;7.838;2023-12-07T04:05:03;19.53;;;16.10;;
14191;SDS011;7177;48.572;7.838;2023-12-07T04:07:29;26.88;;;19.58;;
14191;SDS011;7177;48.572;7.838;2023-12-07T04:09:55;25.23;;;20.70;;
14191;SDS011;7177;48.572;7.838;2023-12-07T04:12:22;23.75;;;17.85;;
14191;SDS011;7177;48.572;7.838;2023-12-07T04:14:48;26.43;;;17.53;;
14191;SDS011;7177;48.572;7.838;2023-12-07T04:17:14;20.83;;;15.98;;
14191;SDS011;7177;48.572;7.838;2023-12-07T04:19:40;21.40;;;16.50;;
14191;SDS011;7177;48.572;7.838;2023-12-07T04:22:05;19.77;;;15.53;;
14191;SDS011;7177;48.572;7.838;2023-12-07T04:24:31;21.80;;;16.20;;
14191;SDS011;7177;48.572;7.838;2023-12-07T04:26:56;19.70;;;15.00;;
14191;SDS011;7177;48.572;7.838;2023-12-07T04:29:22;19.23;;;15.60;;
14191;SDS011;7177;48.572;7.838;2023-12-07T04:31:47;23.70;;;16.53;;
14191;SDS011;7177;48.572;7.838;2023-12-07T04:34:13;21.57;;;15.63;;
14191;SDS011;7177;48.572;7.838;2023-12-07T04:36:38;19.90;;;15.13;;
14191;SDS011;7177;48.572;7.838;2023-12-07T04:39:04;17.80;;;14.00;;
14191;SDS011;7177;48.572;7.838;2023-12-07T04:41:29;19.83;;;14.87;;
14191;SDS011;7177;48.572;7.838;2023-12-07T04:43:55;21.53;;;15.10;;
14191;SDS011;7177;48.572;7.838;2023-12-07T04:46:20;19.50;;;14.77;;
14191;SDS011;7177;48.572;7.838;2023-12-07T04:48:46;18.80;;;13.73;;
14191;SDS011;7177;48.572;7.838;2023-12-07T04:51:12;19.07;;;14.50;;
14191;SDS011;7177;48.572;7.838;2023-12-07T04:53:37;21.07;;;16.93;;
14191;SDS011;7177;48.572;7.838;2023-12-07T04:56:03;19.10;;;13.90;;
14191;SDS011;7177;48.572;7.838;2023-12-07T04:58:28;20.50;;;15.13;;
14191;SDS011;7177;48.572;7.838;2023-12-07T05:00:54;43.30;;;31.23;;
14191;SDS011;7177;48.572;7.838;2023-12-07T05:03:20;31.60;;;23.20;;
14191;SDS011;7177;48.572;7.838;2023-12-07T05:05:46;28.00;;;20.20;;
14191;SDS011;7177;48.572;7.838;2023-12-07T05:08:13;25.00;;;18.80;;
14191;SDS011;7177;48.572;7.838;2023-12-07T05:10:38;21.43;;;16.50;;
14191;SDS011;7177;48.572;7.838;2023-12-07T05:13:03;26.50;;;18.77;;
14191;SDS011;7177;48.572;7.838;2023-12-07T05:15:29;26.47;;;18.37;;
14191;SDS011;7177;48.572;7.838;2023-12-07T05:17:54;23.03;;;15.43;;
14191;SDS011;7177;48.572;7.838;2023-12-07T05:20:20;23.47;;;16.20;;
14191;SDS011;7177;48.572;7.838;2023-12-07T05:22:47;26.30;;;17.75;;
14191;SDS011;7177;48.572;7.838;2023-12-07T05:25:13;28.93;;;19.90;;
14191;SDS011;7177;48.572;7.838;2023-12-07T05:27:39;34.37;;;21.30;;
14191;SDS011;7177;48.572;7.838;2023-12-07T05:30:04;29.13;;;20.57;;
14191;SDS011;7177;48.572;7.838;2023-12-07T05:32:30;43.67;;;20.58;;
14191;SDS011;7177;48.572;7.838;2023-12-07T05:34:56;41.47;;;18.77;;
14191;SDS011;7177;48.572;7.838;2023-12-07T05:37:21;35.27;;;18.60;;
14191;SDS011;7177;48.572;7.838;2023-12-07T05:39:47;20.67;;;15.30;;
14191;SDS011;7177;48.572;7.838;2023-12-07T05:42:12;21.07;;;15.77;;
14191;SDS011;7177;48.572;7.838;2023-12-07T05:44:38;24.57;;;16.37;;
14191;SDS011;7177;48.572;7.838;2023-12-07T05:47:03;22.37;;;15.63;;
14191;SDS011;7177;48.572;7.838;2023-12-07T05:49:29;18.13;;;14.30;;
14191;SDS011;7177;48.572;7.838;2023-12-07T05:51:55;30.93;;;18.93;;
14191;SDS011;7177;48.572;7.838;2023-12-07T05:54:20;31.00;;;20.93;;
14191;SDS011;7177;48.572;7.838;2023-12-07T05:56:47;31.23;;;22.23;;
14191;SDS011;7177;48.572;7.838;2023-12-07T05:59:13;27.47;;;19.83;;
14191;SDS011;7177;48.572;7.838;2023-12-07T06:01:38;22.63;;;17.13;;
14191;SDS011;7177;48.572;7.838;2023-12-07T06:04:05;27.17;;;17.10;;
14191;SDS011;7177;48.572;7.838;2023-12-07T06:06:33;21.20;;;16.10;;
14191;SDS011;7177;48.572;7.838;2023-12-07T06:08:59;32.13;;;17.20;;
14191;SDS011;7177;48.572;7.838;2023-12-07T06:11:24;26.77;;;17.33;;
14191;SDS011;7177;48.572;7.838;2023-12-07T06:13:50;22.63;;;17.30;;
14191;SDS011;7177;48.572;7.838;2023-12-07T06:16:15;22.30;;;17.53;;
14191;SDS011;7177;48.572;7.838;2023-12-07T06:18:42;23.38;;;17.38;;
14191;SDS011;7177;48.572;7.838;2023-12-07T06:21:08;27.70;;;19.40;;
14191;SDS011;7177;48.572;7.838;2023-12-07T06:23:33;26.13;;;18.87;;
14191;SDS011;7177;48.572;7.838;2023-12-07T06:26:00;33.17;;;20.55;;
14191;SDS011;7177;48.572;7.838;2023-12-07T06:28:27;47.63;;;22.83;;
14191;SDS011;7177;48.572;7.838;2023-12-07T06:30:52;29.27;;;20.17;;
14191;SDS011;7177;48.572;7.838;2023-12-07T06:33:18;28.57;;;20.57;;
14191;SDS011;7177;48.572;7.838;2023-12-07T06:35:43;24.80;;;17.70;;
14191;SDS011;7177;48.572;7.838;2023-12-07T06:38:11;24.27;;;18.52;;
14191;SDS011;7177;48.572;7.838;2023-12-07T06:40:37;30.17;;;20.03;;
14191;SDS011;7177;48.572;7.838;2023-12-07T06:43:02;30.27;;;19.00;;
14191;SDS011;7177;48.572;7.838;2023-12-07T06:45:28;35.60;;;20.20;;
14191;SDS011;7177;48.572;7.838;2023-12-07T06:47:53;23.17;;;17.13;;
14191;SDS011;7177;48.572;7.838;2023-12-07T06:50:19;51.53;;;18.87;;
14191;SDS011;7177;48.572;7.838;2023-12-07T06:52:44;35.20;;;20.10;;
14191;SDS011;7177;48.572;7.838;2023-12-07T06:55:10;40.70;;;20.90;;
14191;SDS011;7177;48.572;7.838;2023-12-07T06:57:36;29.37;;;20.57;;
14191;SDS011;7177;48.572;7.838;2023-12-07T07:00:02;54.20;;;21.83;;
14191;SDS011;7177;48.572;7.838;2023-12-07T07:02:30;28.52;;;20.48;;
14191;SDS011;7177;48.572;7.838;2023-12-07T07:04:56;27.23;;;20.27;;
14191;SDS011;7177;48.572;7.838;2023-12-07T07:07:22;44.03;;;21.57;;
14191;SDS011;7177;48.572;7.838;2023-12-07T07:09:47;43.23;;;22.53;;
14191;SDS011;7177;48.572;7.838;2023-12-07T07:12:13;31.30;;;21.73;;
14191;SDS011;7177;48.572;7.838;2023-12-07T07:14:38;40.47;;;17.13;;
14191;SDS011;7177;48.572;7.838;2023-12-07T07:17:05;57.28;;;35.28;;
14191;SDS011;7177;48.572;7.838;2023-12-07T07:19:30;49.03;;;34.30;;
14191;SDS011;7177;48.572;7.838;2023-12-07T07:21:56;37.60;;;27.67;;
14191;SDS011;7177;48.572;7.838;2023-12-07T07:24:22;38.57;;;27.30;;
14191;SDS011;7177;48.572;7.838;2023-12-07T07:26:47;53.73;;;30.23;;
14191;SDS011;7177;48.572;7.838;2023-12-07T07:29:13;37.40;;;26.60;;
14191;SDS011;7177;48.572;7.838;2023-12-07T07:31:38;37.27;;;28.50;;
14191;SDS011;7177;48.572;7.838;2023-12-07T07:34:04;34.92;;;26.08;;
14191;SDS011;7177;48.572;7.838;2023-12-07T07:36:30;32.90;;;25.33;;
14191;SDS011;7177;48.572;7.838;2023-12-07T07:38:57;36.08;;;24.98;;
14191;SDS011;7177;48.572;7.838;2023-12-07T07:41:22;37.90;;;23.80;;
14191;SDS011;7177;48.572;7.838;2023-12-07T07:43:48;32.57;;;22.90;;
14191;SDS011;7177;48.572;7.838;2023-12-07T07:46:14;29.87;;;22.27;;
14191;SDS011;7177;48.572;7.838;2023-12-07T07:48:39;32.53;;;23.57;;
14191;SDS011;7177;48.572;7.838;2023-12-07T07:51:05;27.20;;;20.77;;
14191;SDS011;7177;48.572;7.838;2023-12-07T07:53:31;32.00;;;20.83;;
14191;SDS011;7177;48.572;7.838;2023-12-07T07:55:56;26.90;;;20.37;;
14191;SDS011;7177;48.572;7.838;2023-12-07T07:58:22;27.00;;;21.40;;
14191;SDS011;7177;48.572;7.838;2023-12-07T08:00:47;27.87;;;20.37;;
14191;SDS011;7177;48.572;7.838;2023-12-07T08:03:14;28.02;;;21.70;;
14191;SDS011;7177;48.572;7.838;2023-12-07T08:05:39;23.40;;;18.67;;
14191;SDS011;7177;48.572;7.838;2023-12-07T08:08:05;24.23;;;18.87;;
14191;SDS011;7177;48.572;7.838;2023-12-07T08:10:30;22.33;;;18.87;;
14191;SDS011;7177;48.572;7.838;2023-12-07T08:12:56;23.00;;;18.03;;
14191;SDS011;7177;48.572;7.838;2023-12-07T08:15:22;50.57;;;18.97;;
14191;SDS011;7177;48.572;7.838;2023-12-07T08:17:47;25.13;;;17.40;;
14191;SDS011;7177;48.572;7.838;2023-12-07T08:20:13;19.13;;;16.10;;
14191;SDS011;7177;48.572;7.838;2023-12-07T08:22:39;32.70;;;15.35;;
14191;SDS011;7177;48.572;7.838;2023-12-07T08:25:09;70.32;;;23.13;;
14191;SDS011;7177;48.572;7.838;2023-12-07T08:27:38;37.58;;;17.08;;
14191;SDS011;7177;48.572;7.838;2023-12-07T08:30:04;55.35;;;25.27;;
14191;SDS011;7177;48.572;7.838;2023-12-07T08:32:31;32.55;;;18.10;;
14191;SDS011;7177;48.572;7.838;2023-12-07T08:34:56;122.20;;;19.10;;
14191;SDS011;7177;48.572;7.838;2023-12-07T08:37:22;43.20;;;17.37;;
14191;SDS011;7177;48.572;7.838;2023-12-07T08:39:48;31.50;;;18.10;;
14191;SDS011;7177;48.572;7.838;2023-12-07T08:42:14;48.03;;;17.30;;
14191;SDS011;7177;48.572;7.838;2023-12-07T08:44:39;105.80;;;20.70;;
14191;SDS011;7177;48.572;7.838;2023-12-07T08:47:06;98.00;;;19.17;;
14191;SDS011;7177;48.572;7.838;2023-12-07T08:49:31;41.17;;;17.37;;
14191;SDS011;7177;48.572;7.838;2023-12-07T08:51:57;34.93;;;17.60;;
14191;SDS011;7177;48.572;7.838;2023-12-07T08:54:23;37.55;;;17.75;;
14191;SDS011;7177;48.572;7.838;2023-12-07T08:56:49;30.33;;;18.50;;
14191;SDS011;7177;48.572;7.838;2023-12-07T08:59:14;40.13;;;19.57;;
14191;SDS011;7177;48.572;7.838;2023-12-07T09:01:40;76.77;;;21.70;;
14191;SDS011;7177;48.572;7.838;2023-12-07T09:04:05;25.73;;;19.23;;
14191;SDS011;7177;48.572;7.838;2023-12-07T09:06:31;69.00;;;26.13;;
14191;SDS011;7177;48.572;7.838;2023-12-07T09:08:56;78.03;;;20.77;;
14191;SDS011;7177;48.572;7.838;2023-12-07T09:11:22;23.57;;;18.10;;
14191;SDS011;7177;48.572;7.838;2023-12-07T09:13:48;29.33;;;18.37;;
14191;SDS011;7177;48.572;7.838;2023-12-07T09:16:14;24.33;;;19.50;;
14191;SDS011;7177;48.572;7.838;2023-12-07T09:18:40;23.23;;;17.53;;
14191;SDS011;7177;48.572;7.838;2023-12-07T09:21:06;58.92;;;19.35;;
14191;SDS011;7177;48.572;7.838;2023-12-07T09:23:32;98.43;;;21.73;;
14191;SDS011;7177;48.572;7.838;2023-12-07T09:25:59;21.80;;;17.52;;
14191;SDS011;7177;48.572;7.838;2023-12-07T09:28:25;21.90;;;16.63;;
14191;SDS011;7177;48.572;7.838;2023-12-07T09:30:51;41.77;;;17.97;;
14191;SDS011;7177;48.572;7.838;2023-12-07T09:33:16;21.80;;;16.63;;
14191;SDS011;7177;48.572;7.838;2023-12-07T09:35:42;60.13;;;20.30;;
14191;SDS011;7177;48.572;7.838;2023-12-07T09:38:07;24.20;;;18.63;;
14191;SDS011;7177;48.572;7.838;2023-12-07T09:40:34;26.05;;;19.23;;
14191;SDS011;7177;48.572;7.838;2023-12-07T09:43:00;67.60;;;22.53;;
14191;SDS011;7177;48.572;7.838;2023-12-07T09:45:25;29.80;;;19.53;;
14191;SDS011;7177;48.572;7.838;2023-12-07T09:47:52;72.97;;;21.43;;
14191;SDS011;7177;48.572;7.838;2023-12-07T09:50:18;27.65;;;19.85;;
14191;SDS011;7177;48.572;7.838;2023-12-07T09:52:49;26.13;;;20.10;;
14191;SDS011;7177;48.572;7.838;2023-12-07T09:55:20;49.08;;;23.08;;
14191;SDS011;7177;48.572;7.838;2023-12-07T09:57:47;31.67;;;23.08;;
14191;SDS011;7177;48.572;7.838;2023-12-07T10:00:13;27.92;;;20.48;;
14191;SDS011;7177;48.572;7.838;2023-12-07T10:02:39;33.43;;;23.13;;
14191;SDS011;7177;48.572;7.838;2023-12-07T10:05:06;34.95;;;23.30;;
14191;SDS011;7177;48.572;7.838;2023-12-07T10:07:35;49.38;;;25.52;;
14191;SDS011;7177;48.572;7.838;2023-12-07T10:10:03;69.22;;;25.63;;
14191;SDS011;7177;48.572;7.838;2023-12-07T10:12:29;144.00;;;29.55;;
14191;SDS011;7177;48.572;7.838;2023-12-07T10:14:55;74.05;;;31.52;;
14191;SDS011;7177;48.572;7.838;2023-12-07T10:17:21;35.07;;;25.27;;
14191;SDS011;7177;48.572;7.838;2023-12-07T10:19:54;48.30;;;27.47;;
14191;SDS011;7177;48.572;7.838;2023-12-07T10:22:33;47.53;;;26.05;;
14191;SDS011;7177;48.572;7.838;2023-12-07T10:24:59;126.68;;;29.25;;
14191;SDS011;7177;48.572;7.838;2023-12-07T10:27:25;53.43;;;29.43;;
14191;SDS011;7177;48.572;7.838;2023-12-07T10:29:53;101.15;;;31.98;;
14191;SDS011;7177;48.572;7.838;2023-12-07T10:32:18;48.40;;;29.57;;
14191;SDS011;7177;48.572;7.838;2023-12-07T10:34:46;98.13;;;31.15;;
14191;SDS011;7177;48.572;7.838;2023-12-07T10:37:11;79.83;;;30.03;;
14191;SDS011;7177;48.572;7.838;2023-12-07T10:39:37;42.93;;;27.37;;
14191;SDS011;7177;48.572;7.838;2023-12-07T10:42:02;105.87;;;30.00;;
14191;SDS011;7177;48.572;7.838;2023-12-07T10:44:32;143.48;;;30.30;;
14191;SDS011;7177;48.572;7.838;2023-12-07T10:47:00;49.20;;;28.55;;
14191;SDS011;7177;48.572;7.838;2023-12-07T10:49:26;49.63;;;28.93;;
14191;SDS011;7177;48.572;7.838;2023-12-07T10:51:59;49.43;;;27.70;;
14191;SDS011;7177;48.572;7.838;2023-12-07T10:54:35;122.32;;;30.05;;
14191;SDS011;7177;48.572;7.838;2023-12-07T10:57:08;49.80;;;29.58;;
14191;SDS011;7177;48.572;7.838;2023-12-07T10:59:35;42.95;;;29.10;;
14191;SDS011;7177;48.572;7.838;2023-12-07T11:02:03;76.88;;;26.88;;
14191;SDS011;7177;48.572;7.838;2023-12-07T11:04:31;131.35;;;33.05;;
14191;SDS011;7177;48.572;7.838;2023-12-07T11:06:59;53.40;;;27.07;;
14191;SDS011;7177;48.572;7.838;2023-12-07T11:09:31;36.10;;;23.73;;
14191;SDS011;7177;48.572;7.838;2023-12-07T11:12:21;36.00;;;23.10;;
14191;SDS011;7177;48.572;7.838;2023-12-07T11:15:13;47.85;;;25.88;;
14191;SDS011;7177;48.572;7.838;2023-12-07T11:17:55;51.13;;;26.33;;
14191;SDS011;7177;48.572;7.838;2023-12-07T11:20:21;41.70;;;24.00;;
14191;SDS011;7177;48.572;7.838;2023-12-07T11:22:56;88.32;;;29.08;;
14191;SDS011;7177;48.572;7.838;2023-12-07T11:25:21;67.57;;;30.40;;
14191;SDS011;7177;48.572;7.838;2023-12-07T11:27:47;136.97;;;28.53;;
14191;SDS011;7177;48.572;7.838;2023-12-07T11:30:16;40.57;;;23.47;;
14191;SDS011;7177;48.572;7.838;2023-12-07T11:32:42;88.38;;;33.05;;
14191;SDS011;7177;48.572;7.838;2023-12-07T11:35:11;57.08;;;31.45;;
14191;SDS011;7177;48.572;7.838;2023-12-07T11:40:35;86.13;;;24.83;;
14191;SDS011;7177;48.572;7.838;2023-12-07T11:43:01;53.58;;;24.02;;
14191;SDS011;7177;48.572;7.838;2023-12-07T11:45:36;29.95;;;21.00;;
14191;SDS011;7177;48.572;7.838;2023-12-07T11:48:06;26.90;;;19.60;;
14191;SDS011;7177;48.572;7.838;2023-12-07T11:50:32;54.30;;;21.42;;
14191;SDS011;7177;48.572;7.838;2023-12-07T11:52:58;26.93;;;20.10;;
14191;SDS011;7177;48.572;7.838;2023-12-07T11:55:24;31.33;;;20.93;;
14191;SDS011;7177;48.572;7.838;2023-12-07T11:57:49;32.90;;;22.07;;
14191;SDS011;7177;48.572;7.838;2023-12-07T12:00:15;45.37;;;24.40;;
14191;SDS011;7177;48.572;7.838;2023-12-07T12:02:42;63.38;;;27.48;;
14191;SDS011;7177;48.572;7.838;2023-12-07T12:05:09;36.27;;;23.30;;
14191;SDS011;7177;48.572;7.838;2023-12-07T12:07:35;34.38;;;23.20;;
14191;SDS011;7177;48.572;7.838;2023-12-07T12:10:03;30.67;;;22.00;;
14191;SDS011;7177;48.572;7.838;2023-12-07T12:12:29;32.33;;;23.08;;
14191;SDS011;7177;48.572;7.838;2023-12-07T12:14:57;32.83;;;22.90;;
14191;SDS011;7177;48.572;7.838;2023-12-07T12:17:23;43.37;;;23.40;;
14191;SDS011;7177;48.572;7.838;2023-12-07T12:19:49;44.95;;;26.42;;
14191;SDS011;7177;48.572;7.838;2023-12-07T12:22:19;54.05;;;28.50;;
14191;SDS011;7177;48.572;7.838;2023-12-07T12:24:45;46.33;;;28.92;;
14191;SDS011;7177;48.572;7.838;2023-12-07T12:27:12;45.97;;;28.70;;
14191;SDS011;7177;48.572;7.838;2023-12-07T12:29:39;58.35;;;30.35;;
14191;SDS011;7177;48.572;7.838;2023-12-07T12:32:05;47.05;;;28.52;;
14191;SDS011;7177;48.572;7.838;2023-12-07T12:34:33;64.40;;;30.48;;
14191;SDS011;7177;48.572;7.838;2023-12-07T12:36:59;54.43;;;29.30;;
14191;SDS011;7177;48.572;7.838;2023-12-07T12:39:28;44.58;;;27.60;;
14191;SDS011;7177;48.572;7.838;2023-12-07T12:41:55;45.25;;;27.45;;
14191;SDS011;7177;48.572;7.838;2023-12-07T12:44:21;42.97;;;25.95;;
14191;SDS011;7177;48.572;7.838;2023-12-07T12:46:46;44.60;;;27.83;;
14191;SDS011;7177;48.572;7.838;2023-12-07T12:49:12;42.47;;;25.87;;
14191;SDS011;7177;48.572;7.838;2023-12-07T12:51:38;40.40;;;26.17;;
14191;SDS011;7177;48.572;7.838;2023-12-07T12:54:03;56.20;;;29.80;;
14191;SDS011;7177;48.572;7.838;2023-12-07T12:56:29;47.40;;;28.30;;
14191;SDS011;7177;48.572;7.838;2023-12-07T12:58:54;50.53;;;26.93;;
14191;SDS011;7177;48.572;7.838;2023-12-07T13:01:23;49.92;;;29.40;;
14191;SDS011;7177;48.572;7.838;2023-12-07T13:03:49;50.87;;;29.80;;
14191;SDS011;7177;48.572;7.838;2023-12-07T13:06:15;46.90;;;27.87;;
14191;SDS011;7177;48.572;7.838;2023-12-07T13:08:42;48.25;;;29.75;;
14191;SDS011;7177;48.572;7.838;2023-12-07T13:11:08;51.85;;;29.08;;
14191;SDS011;7177;48.572;7.838;2023-12-07T13:13:34;43.10;;;26.83;;
14191;SDS011;7177;48.572;7.838;2023-12-07T13:16:00;43.57;;;28.00;;
14191;SDS011;7177;48.572;7.838;2023-12-07T13:18:25;45.73;;;27.33;;
14191;SDS011;7177;48.572;7.838;2023-12-07T13:20:51;48.17;;;27.47;;
14191;SDS011;7177;48.572;7.838;2023-12-07T13:23:16;44.17;;;28.80;;
14191;SDS011;7177;48.572;7.838;2023-12-07T13:25:42;49.40;;;28.00;;
14191;SDS011;7177;48.572;7.838;2023-12-07T13:28:07;50.87;;;27.10;;
14191;SDS011;7177;48.572;7.838;2023-12-07T13:30:33;61.55;;;28.33;;
14191;SDS011;7177;48.572;7.838;2023-12-07T13:33:00;63.85;;;28.00;;
14191;SDS011;7177;48.572;7.838;2023-12-07T13:35:26;43.58;;;27.45;;
14191;SDS011;7177;48.572;7.838;2023-12-07T13:37:52;49.53;;;30.00;;
14191;SDS011;7177;48.572;7.838;2023-12-07T13:40:18;49.10;;;31.17;;
14191;SDS011;7177;48.572;7.838;2023-12-07T13:42:43;80.07;;;31.40;;
14191;SDS011;7177;48.572;7.838;2023-12-07T13:45:09;52.10;;;30.43;;
14191;SDS011;7177;48.572;7.838;2023-12-07T13:47:35;62.03;;;34.93;;
14191;SDS011;7177;48.572;7.838;2023-12-07T13:50:03;46.20;;;29.13;;
14191;SDS011;7177;48.572;7.838;2023-12-07T13:52:29;57.05;;;31.75;;
14191;SDS011;7177;48.572;7.838;2023-12-07T13:54:55;64.53;;;29.20;;
14191;SDS011;7177;48.572;7.838;2023-12-07T13:57:21;72.72;;;32.17;;
14191;SDS011;7177;48.572;7.838;2023-12-07T13:59:51;58.45;;;30.85;;
14191;SDS011;7177;48.572;7.838;2023-12-07T14:02:16;72.57;;;30.83;;
14191;SDS011;7177;48.572;7.838;2023-12-07T14:04:43;44.22;;;27.65;;
14191;SDS011;7177;48.572;7.838;2023-12-07T14:07:12;57.63;;;28.30;;
14191;SDS011;7177;48.572;7.838;2023-12-07T14:09:39;49.63;;;29.75;;
14191;SDS011;7177;48.572;7.838;2023-12-07T14:12:07;45.30;;;26.95;;
14191;SDS011;7177;48.572;7.838;2023-12-07T14:14:38;49.33;;;24.73;;
14191;SDS011;7177;48.572;7.838;2023-12-07T14:17:04;40.88;;;24.35;;
14191;SDS011;7177;48.572;7.838;2023-12-07T14:19:30;44.10;;;24.10;;
14191;SDS011;7177;48.572;7.838;2023-12-07T14:21:56;33.33;;;23.73;;
14191;SDS011;7177;48.572;7.838;2023-12-07T14:24:22;37.30;;;22.67;;
14191;SDS011;7177;48.572;7.838;2023-12-07T14:26:48;35.50;;;23.27;;
14191;SDS011;7177;48.572;7.838;2023-12-07T14:29:14;44.80;;;21.87;;
14191;SDS011;7177;48.572;7.838;2023-12-07T14:31:42;30.77;;;22.45;;
14191;SDS011;7177;48.572;7.838;2023-12-07T14:34:13;36.05;;;21.85;;
14191;SDS011;7177;48.572;7.838;2023-12-07T14:36:39;32.75;;;21.88;;